createdAt,value
2022-07-26T00:00:54.629Z,100181.00
2022-07-26T00:06:57.016Z,100175.00
2022-07-26T00:12:59.378Z,100175.00
2022-07-26T00:19:01.831Z,100173.00
2022-07-26T00:25:06.623Z,100175.00
2022-07-26T00:31:10.251Z,100171.00
2022-07-26T00:37:15.961Z,100171.00
2022-07-26T00:43:22.013Z,100167.00
2022-07-26T00:49:24.337Z,100158.00
2022-07-26T00:55:27.571Z,100174.00
2022-07-26T01:01:30.003Z,100162.00
2022-07-26T01:07:32.559Z,100162.00
2022-07-26T01:13:35.660Z,100162.00
2022-07-26T01:19:38.272Z,100147.00
2022-07-26T01:25:43.186Z,100148.00
2022-07-26T01:31:46.030Z,100136.00
2022-07-26T01:37:48.298Z,100144.00
2022-07-26T01:43:50.655Z,100139.00
2022-07-26T01:49:53.126Z,100129.00
2022-07-26T01:55:55.779Z,100127.00
2022-07-26T02:01:58.035Z,100132.00
2022-07-26T02:08:00.582Z,100131.00
2022-07-26T02:14:04.051Z,100128.00
2022-07-26T02:20:07.738Z,100128.00
2022-07-26T02:26:10.014Z,100129.00
2022-07-26T02:32:12.507Z,100136.00
2022-07-26T02:38:15.887Z,100128.00
2022-07-26T02:44:18.065Z,100136.00
2022-07-26T02:50:21.172Z,100135.00
2022-07-26T02:56:23.675Z,100138.00
2022-07-26T03:02:26.138Z,100141.00
2022-07-26T03:08:28.596Z,100133.00
2022-07-26T03:14:30.983Z,100137.00
2022-07-26T03:20:33.259Z,100143.00
2022-07-26T03:26:35.523Z,100138.00
2022-07-26T03:32:37.890Z,100133.00
2022-07-26T03:38:40.333Z,100127.00
2022-07-26T03:44:42.784Z,100134.00
2022-07-26T03:50:45.152Z,100136.00
2022-07-26T03:56:47.658Z,100126.00
2022-07-26T04:02:50.029Z,100131.00
2022-07-26T04:08:52.447Z,100116.00
2022-07-26T04:14:54.917Z,100118.00
2022-07-26T04:20:57.364Z,100108.00
2022-07-26T04:26:59.610Z,100113.00
2022-07-26T04:33:02.169Z,100098.00
2022-07-26T04:39:04.764Z,100103.00
2022-07-26T04:45:08.696Z,100089.00
2022-07-26T04:51:11.302Z,100089.00
2022-07-26T04:57:13.852Z,100095.00
2022-07-26T05:03:16.216Z,100096.00
2022-07-26T05:09:18.739Z,100088.00
2022-07-26T05:15:21.062Z,100084.00
2022-07-26T05:21:23.501Z,100083.00
2022-07-26T05:27:25.753Z,100081.00
2022-07-26T05:33:28.013Z,100083.00
2022-07-26T05:39:30.269Z,100081.00
2022-07-26T05:45:32.844Z,100068.00
2022-07-26T05:51:50.319Z,100022.00
2022-07-26T05:57:52.813Z,100032.00
2022-07-26T06:03:55.541Z,100023.00
2022-07-26T06:09:57.924Z,100032.00
2022-07-26T06:16:01.169Z,100024.00
2022-07-26T06:22:04.089Z,100031.00
2022-07-26T06:28:08.791Z,100024.00
2022-07-26T06:34:11.599Z,100027.00
2022-07-26T06:40:14.516Z,100022.00
2022-07-26T06:46:17.243Z,100029.00
2022-07-26T06:52:19.685Z,100028.00
2022-07-26T06:58:21.828Z,100029.00
2022-07-26T07:04:24.413Z,100029.00
2022-07-26T07:10:26.622Z,100032.00
2022-07-26T07:16:29.750Z,100033.00
2022-07-26T07:22:32.812Z,100031.00
2022-07-26T07:28:38.690Z,100036.00
2022-07-26T07:34:40.966Z,100028.00
2022-07-26T07:40:43.670Z,100036.00
2022-07-26T07:46:46.020Z,100037.00
2022-07-26T07:52:48.306Z,100035.00
2022-07-26T07:58:52.257Z,100027.00
2022-07-26T08:04:55.989Z,100025.00
2022-07-26T08:11:02.491Z,100027.00
2022-07-26T08:17:06.367Z,100022.00
2022-07-26T08:23:08.813Z,100013.00
2022-07-26T08:29:11.384Z,100013.00
2022-07-26T08:35:19.596Z,100002.00
2022-07-26T08:41:23.620Z,100002.00
2022-07-26T08:47:35.641Z,99994.00
2022-07-26T08:53:40.461Z,99986.00
2022-07-26T08:59:43.230Z,99989.00
2022-07-26T09:05:45.654Z,99979.00
2022-07-26T09:11:48.095Z,99967.00
2022-07-26T09:17:54.150Z,99967.00
2022-07-26T09:23:56.668Z,99968.00
2022-07-26T09:30:06.390Z,99963.00
2022-07-26T09:36:09.427Z,99966.00
2022-07-26T09:42:28.478Z,99958.00
2022-07-26T09:48:52.326Z,99944.00
2022-07-26T09:54:53.973Z,99947.00
2022-07-26T10:01:02.031Z,99948.00
2022-07-26T10:07:04.923Z,99944.00
2022-07-26T10:13:08.912Z,99948.00
2022-07-26T10:19:31.061Z,99944.00
2022-07-26T10:25:36.861Z,99936.00
2022-07-26T10:31:39.112Z,99941.00
2022-07-26T10:38:01.784Z,99940.00
2022-07-26T10:44:20.982Z,99942.00
2022-07-26T10:50:33.206Z,99942.00
2022-07-26T10:56:35.551Z,99935.00
2022-07-26T11:02:38.607Z,99921.00
2022-07-26T11:08:44.639Z,99914.00
2022-07-26T11:14:49.921Z,99947.00
2022-07-26T11:20:55.227Z,99947.00
2022-07-26T11:27:02.589Z,99895.00
2022-07-26T11:33:04.946Z,99881.00
2022-07-26T11:39:10.776Z,99879.00
2022-07-26T11:45:13.357Z,99876.00
2022-07-26T11:51:21.075Z,99910.00
2022-07-26T11:57:32.249Z,99906.00
2022-07-26T12:03:39.222Z,99844.00
2022-07-26T12:09:47.468Z,99797.00
2022-07-26T12:15:52.019Z,99771.00
2022-07-26T12:22:12.299Z,99763.00
2022-07-26T12:28:16.071Z,99835.00
2022-07-26T12:34:22.051Z,99866.00
2022-07-26T12:40:26.296Z,99795.00
2022-07-26T12:46:32.012Z,99826.00
2022-07-26T12:52:35.471Z,99798.00
2022-07-26T12:58:37.902Z,99801.00
2022-07-26T13:04:40.331Z,99832.00
2022-07-26T13:10:42.858Z,99828.00
2022-07-26T13:16:45.342Z,99802.00
2022-07-26T13:22:47.495Z,99807.00
2022-07-26T13:28:50.534Z,99803.00
2022-07-26T13:34:52.802Z,99809.00
2022-07-26T13:40:55.099Z,99798.00
2022-07-26T13:46:57.481Z,99802.00
2022-07-26T13:52:59.573Z,99825.00
2022-07-26T13:59:01.932Z,99826.00
2022-07-26T14:05:04.622Z,99820.00
2022-07-26T14:11:07.018Z,99796.00
2022-07-26T14:17:09.324Z,99781.00
2022-07-26T14:23:11.599Z,99788.00
2022-07-26T14:29:13.881Z,99776.00
2022-07-26T14:35:17.670Z,99778.00
2022-07-26T14:41:19.904Z,99772.00
2022-07-26T14:47:22.070Z,99768.00
2022-07-26T14:53:25.360Z,99770.00
2022-07-26T14:59:27.661Z,99755.00
2022-07-26T15:05:30.489Z,99754.00
2022-07-26T15:11:33.010Z,99754.00
2022-07-26T15:17:35.824Z,99753.00
2022-07-26T15:23:39.745Z,99757.00
2022-07-26T15:29:42.382Z,99751.00
2022-07-26T15:35:44.551Z,99745.00
2022-07-26T15:41:48.780Z,99745.00
2022-07-26T15:47:57.649Z,99749.00
2022-07-26T15:54:05.016Z,99739.00
2022-07-26T16:00:11.386Z,99742.00
2022-07-26T16:06:14.094Z,99742.00
2022-07-26T16:12:16.982Z,99747.00
2022-07-26T16:18:19.513Z,99747.00
2022-07-26T16:24:22.054Z,99749.00
2022-07-26T16:30:25.199Z,99750.00
2022-07-26T16:36:27.710Z,99758.00
2022-07-26T16:42:29.843Z,99757.00
2022-07-26T16:48:32.926Z,99752.00
2022-07-26T16:54:35.395Z,99754.00
2022-07-26T17:00:37.778Z,99753.00
2022-07-26T17:06:40.353Z,99745.00
2022-07-26T17:12:42.665Z,99750.00
2022-07-26T17:18:46.296Z,99757.00
2022-07-26T17:24:48.780Z,99754.00
2022-07-26T17:30:51.598Z,99765.00
2022-07-26T17:37:00.919Z,99757.00
2022-07-26T17:43:04.782Z,99759.00
2022-07-26T17:49:07.802Z,99757.00
2022-07-26T17:55:10.794Z,99752.00
2022-07-26T18:01:13.208Z,99757.00
2022-07-26T18:07:15.942Z,99764.00
2022-07-26T18:13:18.188Z,99761.00
2022-07-26T18:19:20.324Z,99778.00
2022-07-26T18:25:22.482Z,99778.00
2022-07-26T18:31:24.874Z,99771.00
2022-07-26T18:37:27.148Z,99773.00
2022-07-26T18:43:29.233Z,99780.00
2022-07-26T18:49:32.815Z,99782.00
2022-07-26T18:55:37.242Z,99790.00
2022-07-26T19:01:39.448Z,99783.00
2022-07-26T19:07:41.848Z,99781.00
2022-07-26T19:13:44.085Z,99783.00
2022-07-26T19:19:46.209Z,99781.00
2022-07-26T19:25:48.415Z,99777.00
2022-07-26T19:31:50.635Z,99772.00
2022-07-26T19:37:52.929Z,99780.00
2022-07-26T19:43:55.497Z,99773.00
2022-07-26T19:49:59.051Z,99771.00
2022-07-26T19:56:01.484Z,99776.00
2022-07-26T20:02:05.948Z,99774.00
2022-07-26T20:08:08.167Z,99782.00
2022-07-26T20:14:10.327Z,99780.00
2022-07-26T20:20:13.496Z,99774.00
2022-07-26T20:26:15.834Z,99781.00
2022-07-26T20:32:18.170Z,99781.00
2022-07-26T20:38:20.530Z,99774.00
2022-07-26T20:44:27.638Z,99780.00
2022-07-26T20:50:30.869Z,99787.00
2022-07-26T20:56:33.403Z,99784.00
2022-07-26T21:02:35.755Z,99786.00
2022-07-26T21:08:38.118Z,99784.00
2022-07-26T21:14:40.391Z,99780.00
2022-07-26T21:20:43.103Z,99783.00
2022-07-26T21:26:45.924Z,99784.00
2022-07-26T21:32:47.946Z,99775.00
2022-07-26T21:38:50.304Z,99777.00
2022-07-26T21:44:52.614Z,99776.00
2022-07-26T21:50:55.440Z,99769.00
2022-07-26T21:56:57.727Z,99764.00
2022-07-26T22:03:00.192Z,99763.00
2022-07-26T22:09:03.125Z,99762.00
2022-07-26T22:15:05.767Z,99766.00
2022-07-26T22:21:08.617Z,99758.00
2022-07-26T22:27:10.827Z,99753.00
2022-07-26T22:33:13.430Z,99763.00
2022-07-26T22:39:15.999Z,99761.00
2022-07-26T22:45:18.669Z,99756.00
2022-07-26T22:51:20.803Z,99759.00
2022-07-26T22:57:23.350Z,99755.00
2022-07-26T23:03:25.723Z,99763.00
2022-07-26T23:09:30.148Z,99769.00
2022-07-26T23:15:32.337Z,99765.00
2022-07-26T23:21:34.528Z,99763.00
2022-07-26T23:27:36.823Z,99773.00
2022-07-26T23:33:50.644Z,99769.00
2022-07-26T23:39:55.753Z,99769.00
2022-07-26T23:45:58.406Z,99770.00
2022-07-26T23:52:00.851Z,99771.00
2022-07-26T23:58:03.172Z,99778.00
